sensor_id;sensor_type;location;lat;lon;timestamp;temperature;humidity
8008;DHT22;4049;49.468;11.200;2023-11-19T00:00:50;5.30;99.90
8008;DHT22;4049;49.468;11.200;2023-11-19T00:03:17;5.30;99.90
8008;DHT22;4049;49.468;11.200;2023-11-19T00:05:46;5.40;99.90
8008;DHT22;4049;49.468;11.200;2023-11-19T00:08:13;5.40;99.90
8008;DHT22;4049;49.468;11.200;2023-11-19T00:10:40;5.40;99.90
8008;DHT22;4049;49.468;11.200;2023-11-19T00:13:07;5.40;99.90
8008;DHT22;4049;49.468;11.200;2023-11-19T00:15:35;5.40;99.90
8008;DHT22;4049;49.468;11.200;2023-11-19T00:18:02;5.40;99.90
8008;DHT22;4049;49.468;11.200;2023-11-19T00:20:30;5.40;99.90
8008;DHT22;4049;49.468;11.200;2023-11-19T00:22:58;5.40;99.90
8008;DHT22;4049;49.468;11.200;2023-11-19T00:25:27;5.30;99.90
8008;DHT22;4049;49.468;11.200;2023-11-19T00:27:53;5.30;99.90
8008;DHT22;4049;49.468;11.200;2023-11-19T00:30:22;5.40;99.90
8008;DHT22;4049;49.468;11.200;2023-11-19T00:32:49;5.40;99.90
8008;DHT22;4049;49.468;11.200;2023-11-19T00:35:15;5.40;99.90
8008;DHT22;4049;49.468;11.200;2023-11-19T00:37:42;5.50;99.90
8008;DHT22;4049;49.468;11.200;2023-11-19T00:40:12;5.50;99.90
8008;DHT22;4049;49.468;11.200;2023-11-19T00:42:41;5.40;99.90
8008;DHT22;4049;49.468;11.200;2023-11-19T00:45:09;5.50;99.90
8008;DHT22;4049;49.468;11.200;2023-11-19T00:47:37;5.40;99.90
8008;DHT22;4049;49.468;11.200;2023-11-19T00:50:05;5.50;99.90
8008;DHT22;4049;49.468;11.200;2023-11-19T00:52:34;5.50;99.90
8008;DHT22;4049;49.468;11.200;2023-11-19T00:55:02;5.50;99.90
8008;DHT22;4049;49.468;11.200;2023-11-19T00:57:31;5.50;99.90
8008;DHT22;4049;49.468;11.200;2023-11-19T00:59:58;5.50;99.90
8008;DHT22;4049;49.468;11.200;2023-11-19T01:02:25;5.50;99.90
8008;DHT22;4049;49.468;11.200;2023-11-19T01:04:52;5.50;99.90
8008;DHT22;4049;49.468;11.200;2023-11-19T01:07:19;5.50;99.90
8008;DHT22;4049;49.468;11.200;2023-11-19T01:09:47;5.50;99.90
8008;DHT22;4049;49.468;11.200;2023-11-19T01:12:13;5.50;99.90
8008;DHT22;4049;49.468;11.200;2023-11-19T01:14:41;5.50;99.90
8008;DHT22;4049;49.468;11.200;2023-11-19T01:17:08;5.50;99.90
8008;DHT22;4049;49.468;11.200;2023-11-19T01:19:35;5.60;99.90
8008;DHT22;4049;49.468;11.200;2023-11-19T01:22:01;5.50;99.90
8008;DHT22;4049;49.468;11.200;2023-11-19T01:24:28;5.50;99.90
8008;DHT22;4049;49.468;11.200;2023-11-19T01:26:56;5.50;99.90
8008;DHT22;4049;49.468;11.200;2023-11-19T01:29:25;5.50;99.90
8008;DHT22;4049;49.468;11.200;2023-11-19T01:31:53;5.50;99.90
8008;DHT22;4049;49.468;11.200;2023-11-19T01:34:20;5.50;99.90
8008;DHT22;4049;49.468;11.200;2023-11-19T01:36:47;5.50;99.90
8008;DHT22;4049;49.468;11.200;2023-11-19T01:39:14;5.50;99.90
8008;DHT22;4049;49.468;11.200;2023-11-19T01:41:42;5.50;99.90
8008;DHT22;4049;49.468;11.200;2023-11-19T01:44:09;5.50;99.90
8008;DHT22;4049;49.468;11.200;2023-11-19T01:46:38;5.50;99.90
8008;DHT22;4049;49.468;11.200;2023-11-19T01:49:08;5.50;99.90
8008;DHT22;4049;49.468;11.200;2023-11-19T01:51:38;5.60;99.90
8008;DHT22;4049;49.468;11.200;2023-11-19T01:54:06;5.60;99.90
8008;DHT22;4049;49.468;11.200;2023-11-19T01:56:33;5.60;99.90
8008;DHT22;4049;49.468;11.200;2023-11-19T01:59:01;5.60;99.90
8008;DHT22;4049;49.468;11.200;2023-11-19T02:01:29;5.60;99.90
8008;DHT22;4049;49.468;11.200;2023-11-19T02:03:58;5.60;99.90
8008;DHT22;4049;49.468;11.200;2023-11-19T02:06:28;5.60;99.90
8008;DHT22;4049;49.468;11.200;2023-11-19T02:08:55;5.60;99.90
8008;DHT22;4049;49.468;11.200;2023-11-19T02:11:22;5.60;99.90
8008;DHT22;4049;49.468;11.200;2023-11-19T02:13:49;5.60;99.90
8008;DHT22;4049;49.468;11.200;2023-11-19T02:16:16;5.60;99.90
8008;DHT22;4049;49.468;11.200;2023-11-19T02:18:43;5.60;99.90
8008;DHT22;4049;49.468;11.200;2023-11-19T02:21:09;5.60;99.90
8008;DHT22;4049;49.468;11.200;2023-11-19T02:23:38;5.60;99.90
8008;DHT22;4049;49.468;11.200;2023-11-19T02:26:13;5.60;99.90
8008;DHT22;4049;49.468;11.200;2023-11-19T02:28:43;5.60;99.90
8008;DHT22;4049;49.468;11.200;2023-11-19T02:31:10;5.60;99.90
8008;DHT22;4049;49.468;11.200;2023-11-19T02:33:37;5.60;99.90
8008;DHT22;4049;49.468;11.200;2023-11-19T02:36:04;5.70;99.90
8008;DHT22;4049;49.468;11.200;2023-11-19T02:38:32;5.70;99.90
8008;DHT22;4049;49.468;11.200;2023-11-19T02:41:02;5.70;99.90
8008;DHT22;4049;49.468;11.200;2023-11-19T02:43:30;5.70;99.90
8008;DHT22;4049;49.468;11.200;2023-11-19T02:46:00;5.70;99.90
8008;DHT22;4049;49.468;11.200;2023-11-19T02:48:27;5.60;99.90
8008;DHT22;4049;49.468;11.200;2023-11-19T02:50:54;5.60;99.90
8008;DHT22;4049;49.468;11.200;2023-11-19T02:53:23;5.70;99.90
8008;DHT22;4049;49.468;11.200;2023-11-19T02:55:53;5.60;99.90
8008;DHT22;4049;49.468;11.200;2023-11-19T02:58:26;5.60;99.90
8008;DHT22;4049;49.468;11.200;2023-11-19T03:00:54;5.60;99.90
8008;DHT22;4049;49.468;11.200;2023-11-19T03:03:26;5.60;99.90
8008;DHT22;4049;49.468;11.200;2023-11-19T03:05:56;5.60;99.90
8008;DHT22;4049;49.468;11.200;2023-11-19T03:08:23;5.70;99.90
8008;DHT22;4049;49.468;11.200;2023-11-19T03:10:50;5.70;99.90
8008;DHT22;4049;49.468;11.200;2023-11-19T03:13:17;5.70;99.90
8008;DHT22;4049;49.468;11.200;2023-11-19T03:15:44;5.70;99.90
8008;DHT22;4049;49.468;11.200;2023-11-19T03:18:11;5.70;99.90
8008;DHT22;4049;49.468;11.200;2023-11-19T03:20:39;5.70;99.90
8008;DHT22;4049;49.468;11.200;2023-11-19T03:23:06;5.80;99.90
8008;DHT22;4049;49.468;11.200;2023-11-19T03:25:33;5.80;99.90
8008;DHT22;4049;49.468;11.200;2023-11-19T03:28:01;5.70;99.90
8008;DHT22;4049;49.468;11.200;2023-11-19T03:30:28;5.80;99.90
8008;DHT22;4049;49.468;11.200;2023-11-19T03:32:55;5.80;99.90
8008;DHT22;4049;49.468;11.200;2023-11-19T03:35:22;5.80;99.90
8008;DHT22;4049;49.468;11.200;2023-11-19T03:37:51;5.80;99.90
8008;DHT22;4049;49.468;11.200;2023-11-19T03:40:18;5.80;99.90
8008;DHT22;4049;49.468;11.200;2023-11-19T03:42:45;5.80;99.90
8008;DHT22;4049;49.468;11.200;2023-11-19T03:45:12;5.80;99.90
8008;DHT22;4049;49.468;11.200;2023-11-19T03:47:40;5.90;99.90
8008;DHT22;4049;49.468;11.200;2023-11-19T03:50:07;5.90;99.90
8008;DHT22;4049;49.468;11.200;2023-11-19T03:52:34;5.90;99.90
8008;DHT22;4049;49.468;11.200;2023-11-19T03:55:03;6.00;99.90
8008;DHT22;4049;49.468;11.200;2023-11-19T03:57:31;6.10;99.90
8008;DHT22;4049;49.468;11.200;2023-11-19T03:59:57;6.10;99.90
8008;DHT22;4049;49.468;11.200;2023-11-19T04:02:25;6.10;99.90
8008;DHT22;4049;49.468;11.200;2023-11-19T04:04:53;6.20;99.90
8008;DHT22;4049;49.468;11.200;2023-11-19T04:07:21;6.20;99.90
8008;DHT22;4049;49.468;11.200;2023-11-19T04:09:47;6.20;99.90
8008;DHT22;4049;49.468;11.200;2023-11-19T04:12:16;6.30;99.90
8008;DHT22;4049;49.468;11.200;2023-11-19T04:14:43;6.30;99.90
8008;DHT22;4049;49.468;11.200;2023-11-19T04:17:10;6.20;99.90
8008;DHT22;4049;49.468;11.200;2023-11-19T04:19:36;6.20;99.90
8008;DHT22;4049;49.468;11.200;2023-11-19T04:22:06;6.20;99.90
8008;DHT22;4049;49.468;11.200;2023-11-19T04:24:33;6.30;99.90
8008;DHT22;4049;49.468;11.200;2023-11-19T04:27:00;6.30;99.90
8008;DHT22;4049;49.468;11.200;2023-11-19T04:29:29;6.30;99.90
8008;DHT22;4049;49.468;11.200;2023-11-19T04:31:56;6.30;99.90
8008;DHT22;4049;49.468;11.200;2023-11-19T04:34:23;6.30;99.90
8008;DHT22;4049;49.468;11.200;2023-11-19T04:36:50;6.30;99.90
8008;DHT22;4049;49.468;11.200;2023-11-19T04:39:17;6.30;99.90
8008;DHT22;4049;49.468;11.200;2023-11-19T04:41:48;6.30;99.90
8008;DHT22;4049;49.468;11.200;2023-11-19T04:44:15;6.30;99.90
8008;DHT22;4049;49.468;11.200;2023-11-19T04:46:44;6.40;99.90
8008;DHT22;4049;49.468;11.200;2023-11-19T04:49:11;6.40;99.90
8008;DHT22;4049;49.468;11.200;2023-11-19T04:51:39;6.40;99.90
8008;DHT22;4049;49.468;11.200;2023-11-19T04:54:07;6.40;99.90
8008;DHT22;4049;49.468;11.200;2023-11-19T04:56:34;6.40;99.90
8008;DHT22;4049;49.468;11.200;2023-11-19T04:59:02;6.40;99.90
8008;DHT22;4049;49.468;11.200;2023-11-19T05:01:29;6.50;99.90
8008;DHT22;4049;49.468;11.200;2023-11-19T05:03:57;6.60;99.90
8008;DHT22;4049;49.468;11.200;2023-11-19T05:06:26;6.60;99.90
8008;DHT22;4049;49.468;11.200;2023-11-19T05:08:54;6.60;99.90
8008;DHT22;4049;49.468;11.200;2023-11-19T05:11:21;6.60;99.90
8008;DHT22;4049;49.468;11.200;2023-11-19T05:13:49;6.70;99.90
8008;DHT22;4049;49.468;11.200;2023-11-19T05:16:16;6.70;99.90
8008;DHT22;4049;49.468;11.200;2023-11-19T05:18:43;6.70;99.90
8008;DHT22;4049;49.468;11.200;2023-11-19T05:21:11;6.70;99.90
8008;DHT22;4049;49.468;11.200;2023-11-19T05:23:39;6.70;99.90
8008;DHT22;4049;49.468;11.200;2023-11-19T05:26:07;6.70;99.90
8008;DHT22;4049;49.468;11.200;2023-11-19T05:28:37;6.80;99.90
8008;DHT22;4049;49.468;11.200;2023-11-19T05:31:05;6.80;99.90
8008;DHT22;4049;49.468;11.200;2023-11-19T05:33:32;6.80;99.90
8008;DHT22;4049;49.468;11.200;2023-11-19T05:35:59;6.90;99.90
8008;DHT22;4049;49.468;11.200;2023-11-19T05:38:27;6.90;99.90
8008;DHT22;4049;49.468;11.200;2023-11-19T05:40:54;6.90;99.90
8008;DHT22;4049;49.468;11.200;2023-11-19T05:43:22;6.90;99.90
8008;DHT22;4049;49.468;11.200;2023-11-19T05:45:52;6.90;99.90
8008;DHT22;4049;49.468;11.200;2023-11-19T05:48:19;7.00;99.90
8008;DHT22;4049;49.468;11.200;2023-11-19T05:50:46;7.10;99.90
8008;DHT22;4049;49.468;11.200;2023-11-19T05:53:15;7.10;99.90
8008;DHT22;4049;49.468;11.200;2023-11-19T05:55:43;7.10;99.90
8008;DHT22;4049;49.468;11.200;2023-11-19T05:58:14;7.20;99.90
8008;DHT22;4049;49.468;11.200;2023-11-19T06:00:41;7.20;99.90
8008;DHT22;4049;49.468;11.200;2023-11-19T06:03:08;7.30;99.90
8008;DHT22;4049;49.468;11.200;2023-11-19T06:05:35;7.30;99.90
8008;DHT22;4049;49.468;11.200;2023-11-19T06:08:04;7.30;99.90
8008;DHT22;4049;49.468;11.200;2023-11-19T06:10:32;7.30;99.90
8008;DHT22;4049;49.468;11.200;2023-11-19T06:13:00;7.40;99.90
8008;DHT22;4049;49.468;11.200;2023-11-19T06:15:30;7.40;99.90
8008;DHT22;4049;49.468;11.200;2023-11-19T06:17:58;7.40;99.90
8008;DHT22;4049;49.468;11.200;2023-11-19T06:20:27;7.40;99.90
8008;DHT22;4049;49.468;11.200;2023-11-19T06:22:54;7.50;99.90
8008;DHT22;4049;49.468;11.200;2023-11-19T06:25:22;7.50;99.90
8008;DHT22;4049;49.468;11.200;2023-11-19T06:27:49;7.50;99.90
8008;DHT22;4049;49.468;11.200;2023-11-19T06:30:18;7.50;99.90
8008;DHT22;4049;49.468;11.200;2023-11-19T06:32:45;7.50;99.90
8008;DHT22;4049;49.468;11.200;2023-11-19T06:35:12;7.50;99.90
8008;DHT22;4049;49.468;11.200;2023-11-19T06:37:40;7.60;99.90
8008;DHT22;4049;49.468;11.200;2023-11-19T06:40:08;7.60;99.90
8008;DHT22;4049;49.468;11.200;2023-11-19T06:42:35;7.60;99.90
8008;DHT22;4049;49.468;11.200;2023-11-19T06:45:03;7.60;99.90
8008;DHT22;4049;49.468;11.200;2023-11-19T06:47:33;7.60;99.90
8008;DHT22;4049;49.468;11.200;2023-11-19T06:50:00;7.70;99.90
8008;DHT22;4049;49.468;11.200;2023-11-19T06:52:27;7.70;99.90
8008;DHT22;4049;49.468;11.200;2023-11-19T06:54:54;7.70;99.90
8008;DHT22;4049;49.468;11.200;2023-11-19T06:57:21;7.80;99.90
8008;DHT22;4049;49.468;11.200;2023-11-19T06:59:49;7.80;99.90
8008;DHT22;4049;49.468;11.200;2023-11-19T07:02:16;7.80;99.90
8008;DHT22;4049;49.468;11.200;2023-11-19T07:04:44;7.90;99.90
8008;DHT22;4049;49.468;11.200;2023-11-19T07:07:11;7.90;99.90
8008;DHT22;4049;49.468;11.200;2023-11-19T07:09:40;7.90;99.90
8008;DHT22;4049;49.468;11.200;2023-11-19T07:12:07;7.90;99.90
8008;DHT22;4049;49.468;11.200;2023-11-19T07:14:36;7.90;99.90
8008;DHT22;4049;49.468;11.200;2023-11-19T07:17:07;7.90;99.90
8008;DHT22;4049;49.468;11.200;2023-11-19T07:19:34;7.90;99.90
8008;DHT22;4049;49.468;11.200;2023-11-19T07:22:03;8.00;99.90
8008;DHT22;4049;49.468;11.200;2023-11-19T07:24:31;8.00;99.90
8008;DHT22;4049;49.468;11.200;2023-11-19T07:26:58;8.00;99.90
8008;DHT22;4049;49.468;11.200;2023-11-19T07:29:26;8.10;99.90
8008;DHT22;4049;49.468;11.200;2023-11-19T07:31:53;8.10;99.90
8008;DHT22;4049;49.468;11.200;2023-11-19T07:34:19;8.10;99.90
8008;DHT22;4049;49.468;11.200;2023-11-19T07:36:46;8.10;99.90
8008;DHT22;4049;49.468;11.200;2023-11-19T07:39:15;8.10;99.90
8008;DHT22;4049;49.468;11.200;2023-11-19T07:41:42;8.20;99.90
8008;DHT22;4049;49.468;11.200;2023-11-19T07:44:09;8.20;99.90
8008;DHT22;4049;49.468;11.200;2023-11-19T07:46:36;8.20;99.90
8008;DHT22;4049;49.468;11.200;2023-11-19T07:49:04;8.20;99.90
8008;DHT22;4049;49.468;11.200;2023-11-19T07:51:30;8.30;99.90
8008;DHT22;4049;49.468;11.200;2023-11-19T07:53:57;8.30;99.90
8008;DHT22;4049;49.468;11.200;2023-11-19T07:56:26;8.30;99.90
8008;DHT22;4049;49.468;11.200;2023-11-19T07:58:52;8.40;99.90
8008;DHT22;4049;49.468;11.200;2023-11-19T08:01:19;8.40;99.90
8008;DHT22;4049;49.468;11.200;2023-11-19T08:03:46;8.40;99.90
8008;DHT22;4049;49.468;11.200;2023-11-19T08:06:13;8.40;99.90
8008;DHT22;4049;49.468;11.200;2023-11-19T08:08:40;8.40;99.90
8008;DHT22;4049;49.468;11.200;2023-11-19T08:11:07;8.50;99.90
8008;DHT22;4049;49.468;11.200;2023-11-19T08:13:35;8.50;99.90
8008;DHT22;4049;49.468;11.200;2023-11-19T08:16:02;8.50;99.90
8008;DHT22;4049;49.468;11.200;2023-11-19T08:18:29;8.50;99.90
8008;DHT22;4049;49.468;11.200;2023-11-19T08:20:56;8.40;99.90
8008;DHT22;4049;49.468;11.200;2023-11-19T08:23:24;8.40;99.90
8008;DHT22;4049;49.468;11.200;2023-11-19T08:25:51;8.50;99.90
8008;DHT22;4049;49.468;11.200;2023-11-19T08:28:18;8.50;99.90
8008;DHT22;4049;49.468;11.200;2023-11-19T08:30:47;8.60;99.90
8008;DHT22;4049;49.468;11.200;2023-11-19T08:33:14;8.70;99.90
8008;DHT22;4049;49.468;11.200;2023-11-19T08:35:41;8.70;99.90
8008;DHT22;4049;49.468;11.200;2023-11-19T08:38:08;8.70;99.90
8008;DHT22;4049;49.468;11.200;2023-11-19T08:40:35;8.70;99.90
8008;DHT22;4049;49.468;11.200;2023-11-19T08:43:03;8.80;99.90
8008;DHT22;4049;49.468;11.200;2023-11-19T08:45:30;8.90;99.90
8008;DHT22;4049;49.468;11.200;2023-11-19T08:47:58;9.00;99.90
8008;DHT22;4049;49.468;11.200;2023-11-19T08:50:25;9.10;99.90
8008;DHT22;4049;49.468;11.200;2023-11-19T08:52:52;9.20;99.90
8008;DHT22;4049;49.468;11.200;2023-11-19T08:55:22;9.30;99.90
8008;DHT22;4049;49.468;11.200;2023-11-19T08:57:49;9.40;99.90
8008;DHT22;4049;49.468;11.200;2023-11-19T09:00:16;9.40;99.90
8008;DHT22;4049;49.468;11.200;2023-11-19T09:02:43;9.50;99.90
8008;DHT22;4049;49.468;11.200;2023-11-19T09:05:11;9.60;99.90
8008;DHT22;4049;49.468;11.200;2023-11-19T09:07:38;9.70;99.90
8008;DHT22;4049;49.468;11.200;2023-11-19T09:10:06;9.80;99.90
8008;DHT22;4049;49.468;11.200;2023-11-19T09:12:34;9.90;99.90
8008;DHT22;4049;49.468;11.200;2023-11-19T09:15:01;9.90;99.90
8008;DHT22;4049;49.468;11.200;2023-11-19T09:17:28;10.00;99.90
8008;DHT22;4049;49.468;11.200;2023-11-19T09:19:55;10.10;99.90
8008;DHT22;4049;49.468;11.200;2023-11-19T09:22:23;10.10;99.90
8008;DHT22;4049;49.468;11.200;2023-11-19T09:24:50;10.30;99.90
8008;DHT22;4049;49.468;11.200;2023-11-19T09:27:17;10.30;99.90
8008;DHT22;4049;49.468;11.200;2023-11-19T09:29:44;10.40;99.90
8008;DHT22;4049;49.468;11.200;2023-11-19T09:32:12;10.50;99.90
8008;DHT22;4049;49.468;11.200;2023-11-19T09:34:39;10.50;99.90
8008;DHT22;4049;49.468;11.200;2023-11-19T09:37:06;10.60;99.90
8008;DHT22;4049;49.468;11.200;2023-11-19T09:39:35;10.60;99.90
8008;DHT22;4049;49.468;11.200;2023-11-19T09:42:02;10.70;99.90
8008;DHT22;4049;49.468;11.200;2023-11-19T09:44:29;10.70;99.90
8008;DHT22;4049;49.468;11.200;2023-11-19T09:46:58;10.80;99.90
8008;DHT22;4049;49.468;11.200;2023-11-19T09:49:26;10.90;99.90
8008;DHT22;4049;49.468;11.200;2023-11-19T09:51:54;10.90;99.90
8008;DHT22;4049;49.468;11.200;2023-11-19T09:54:21;11.00;99.90
8008;DHT22;4049;49.468;11.200;2023-11-19T09:56:57;11.10;99.90
8008;DHT22;4049;49.468;11.200;2023-11-19T09:59:29;11.10;99.90
8008;DHT22;4049;49.468;11.200;2023-11-19T10:01:56;11.10;99.90
8008;DHT22;4049;49.468;11.200;2023-11-19T10:04:24;11.10;99.90
8008;DHT22;4049;49.468;11.200;2023-11-19T10:07:03;11.20;99.90
8008;DHT22;4049;49.468;11.200;2023-11-19T10:09:30;11.10;99.90
8008;DHT22;4049;49.468;11.200;2023-11-19T10:11:58;11.10;99.90
8008;DHT22;4049;49.468;11.200;2023-11-19T10:14:28;11.20;99.90
8008;DHT22;4049;49.468;11.200;2023-11-19T10:16:55;11.20;99.90
8008;DHT22;4049;49.468;11.200;2023-11-19T10:19:22;11.20;99.90
8008;DHT22;4049;49.468;11.200;2023-11-19T10:21:49;11.20;99.90
8008;DHT22;4049;49.468;11.200;2023-11-19T10:24:16;11.30;99.90
8008;DHT22;4049;49.468;11.200;2023-11-19T10:26:59;11.30;99.90
8008;DHT22;4049;49.468;11.200;2023-11-19T10:29:26;11.30;99.90
8008;DHT22;4049;49.468;11.200;2023-11-19T10:31:57;11.30;99.90
8008;DHT22;4049;49.468;11.200;2023-11-19T10:34:26;11.40;99.90
8008;DHT22;4049;49.468;11.200;2023-11-19T10:36:53;11.40;99.90
8008;DHT22;4049;49.468;11.200;2023-11-19T10:39:23;11.40;99.90
8008;DHT22;4049;49.468;11.200;2023-11-19T10:41:53;11.40;99.90
8008;DHT22;4049;49.468;11.200;2023-11-19T10:44:33;11.40;99.90
8008;DHT22;4049;49.468;11.200;2023-11-19T10:47:01;11.40;99.90
8008;DHT22;4049;49.468;11.200;2023-11-19T10:49:32;11.40;99.90
8008;DHT22;4049;49.468;11.200;2023-11-19T10:52:01;11.40;99.90
8008;DHT22;4049;49.468;11.200;2023-11-19T10:54:30;11.40;99.90
8008;DHT22;4049;49.468;11.200;2023-11-19T10:56:59;11.50;99.90
8008;DHT22;4049;49.468;11.200;2023-11-19T10:59:30;11.50;99.90
8008;DHT22;4049;49.468;11.200;2023-11-19T11:02:03;11.60;99.90
8008;DHT22;4049;49.468;11.200;2023-11-19T11:04:32;11.60;99.90
8008;DHT22;4049;49.468;11.200;2023-11-19T11:07:00;11.80;99.90
8008;DHT22;4049;49.468;11.200;2023-11-19T11:09:28;11.90;99.90
8008;DHT22;4049;49.468;11.200;2023-11-19T11:11:56;11.90;99.90
8008;DHT22;4049;49.468;11.200;2023-11-19T11:14:24;12.00;99.90
8008;DHT22;4049;49.468;11.200;2023-11-19T11:16:53;12.10;99.90
8008;DHT22;4049;49.468;11.200;2023-11-19T11:19:22;12.10;99.90
8008;DHT22;4049;49.468;11.200;2023-11-19T11:21:51;12.10;99.90
8008;DHT22;4049;49.468;11.200;2023-11-19T11:24:38;12.10;99.90
8008;DHT22;4049;49.468;11.200;2023-11-19T11:27:30;12.10;99.90
8008;DHT22;4049;49.468;11.200;2023-11-19T11:30:06;12.10;99.90
8008;DHT22;4049;49.468;11.200;2023-11-19T11:32:43;12.10;99.90
8008;DHT22;4049;49.468;11.200;2023-11-19T11:35:24;12.20;99.90
8008;DHT22;4049;49.468;11.200;2023-11-19T11:38:01;12.20;99.90
8008;DHT22;4049;49.468;11.200;2023-11-19T11:40:29;12.20;99.90
8008;DHT22;4049;49.468;11.200;2023-11-19T11:42:57;12.20;99.90
8008;DHT22;4049;49.468;11.200;2023-11-19T11:45:39;12.20;99.90
8008;DHT22;4049;49.468;11.200;2023-11-19T11:48:13;12.20;99.90
8008;DHT22;4049;49.468;11.200;2023-11-19T11:50:57;12.20;99.90
8008;DHT22;4049;49.468;11.200;2023-11-19T11:53:25;12.20;99.90
8008;DHT22;4049;49.468;11.200;2023-11-19T11:56:01;12.30;99.90
8008;DHT22;4049;49.468;11.200;2023-11-19T11:58:31;12.20;99.90
8008;DHT22;4049;49.468;11.200;2023-11-19T12:00:59;12.30;99.90
8008;DHT22;4049;49.468;11.200;2023-11-19T12:03:28;12.30;99.90
8008;DHT22;4049;49.468;11.200;2023-11-19T12:05:58;12.30;99.90
8008;DHT22;4049;49.468;11.200;2023-11-19T12:08:26;12.30;99.90
8008;DHT22;4049;49.468;11.200;2023-11-19T12:10:55;12.30;99.90
8008;DHT22;4049;49.468;11.200;2023-11-19T12:13:24;12.20;99.90
8008;DHT22;4049;49.468;11.200;2023-11-19T12:16:10;12.20;99.90
8008;DHT22;4049;49.468;11.200;2023-11-19T12:18:42;12.20;99.90
8008;DHT22;4049;49.468;11.200;2023-11-19T12:21:10;12.20;99.90
8008;DHT22;4049;49.468;11.200;2023-11-19T12:23:45;12.20;99.90
8008;DHT22;4049;49.468;11.200;2023-11-19T12:26:48;12.20;99.90
8008;DHT22;4049;49.468;11.200;2023-11-19T12:29:18;12.20;99.90
8008;DHT22;4049;49.468;11.200;2023-11-19T12:31:44;12.20;99.90
8008;DHT22;4049;49.468;11.200;2023-11-19T12:34:11;12.20;99.90
8008;DHT22;4049;49.468;11.200;2023-11-19T12:36:40;12.20;99.90
8008;DHT22;4049;49.468;11.200;2023-11-19T12:39:10;12.20;99.90
8008;DHT22;4049;49.468;11.200;2023-11-19T12:41:53;12.20;99.90
8008;DHT22;4049;49.468;11.200;2023-11-19T12:44:21;12.20;99.90
8008;DHT22;4049;49.468;11.200;2023-11-19T12:47:02;12.30;99.90
8008;DHT22;4049;49.468;11.200;2023-11-19T12:49:32;12.40;99.90
8008;DHT22;4049;49.468;11.200;2023-11-19T12:52:01;12.50;99.90
8008;DHT22;4049;49.468;11.200;2023-11-19T12:54:34;12.60;99.90
8008;DHT22;4049;49.468;11.200;2023-11-19T12:57:01;12.60;99.90
8008;DHT22;4049;49.468;11.200;2023-11-19T12:59:28;12.70;99.90
8008;DHT22;4049;49.468;11.200;2023-11-19T13:02:00;12.70;99.90
8008;DHT22;4049;49.468;11.200;2023-11-19T13:04:31;12.70;99.90
8008;DHT22;4049;49.468;11.200;2023-11-19T13:06:58;12.80;99.90
8008;DHT22;4049;49.468;11.200;2023-11-19T13:09:27;12.90;99.90
8008;DHT22;4049;49.468;11.200;2023-11-19T13:11:55;13.10;99.90
8008;DHT22;4049;49.468;11.200;2023-11-19T13:14:23;13.20;99.90
8008;DHT22;4049;49.468;11.200;2023-11-19T13:16:50;13.30;99.90
8008;DHT22;4049;49.468;11.200;2023-11-19T13:19:27;13.50;99.90
8008;DHT22;4049;49.468;11.200;2023-11-19T13:21:54;13.70;99.90
8008;DHT22;4049;49.468;11.200;2023-11-19T13:24:21;13.70;99.90
8008;DHT22;4049;49.468;11.200;2023-11-19T13:26:50;13.70;99.90
8008;DHT22;4049;49.468;11.200;2023-11-19T13:29:17;13.70;99.90
8008;DHT22;4049;49.468;11.200;2023-11-19T13:31:44;13.60;99.90
8008;DHT22;4049;49.468;11.200;2023-11-19T13:34:11;13.50;99.90
8008;DHT22;4049;49.468;11.200;2023-11-19T13:36:38;13.50;99.90
8008;DHT22;4049;49.468;11.200;2023-11-19T13:39:08;13.40;99.90
8008;DHT22;4049;49.468;11.200;2023-11-19T13:41:37;13.30;99.90
8008;DHT22;4049;49.468;11.200;2023-11-19T13:44:07;13.30;99.90
8008;DHT22;4049;49.468;11.200;2023-11-19T13:46:34;13.20;99.90
8008;DHT22;4049;49.468;11.200;2023-11-19T13:49:01;13.20;99.90
8008;DHT22;4049;49.468;11.200;2023-11-19T13:51:31;13.20;99.90
8008;DHT22;4049;49.468;11.200;2023-11-19T13:53:58;13.30;99.90
8008;DHT22;4049;49.468;11.200;2023-11-19T13:56:25;13.50;99.90
8008;DHT22;4049;49.468;11.200;2023-11-19T13:58:55;13.80;99.90
8008;DHT22;4049;49.468;11.200;2023-11-19T14:01:23;14.20;99.90
8008;DHT22;4049;49.468;11.200;2023-11-19T14:03:52;14.50;99.90
8008;DHT22;4049;49.468;11.200;2023-11-19T14:06:19;14.70;99.90
8008;DHT22;4049;49.468;11.200;2023-11-19T14:08:46;14.80;99.90
8008;DHT22;4049;49.468;11.200;2023-11-19T14:11:13;14.90;99.90
8008;DHT22;4049;49.468;11.200;2023-11-19T14:13:40;15.00;99.90
8008;DHT22;4049;49.468;11.200;2023-11-19T14:16:07;15.20;99.90
8008;DHT22;4049;49.468;11.200;2023-11-19T14:18:39;15.30;99.90
8008;DHT22;4049;49.468;11.200;2023-11-19T14:21:06;15.40;99.90
8008;DHT22;4049;49.468;11.200;2023-11-19T14:23:33;15.60;99.90
8008;DHT22;4049;49.468;11.200;2023-11-19T14:26:00;15.70;99.90
8008;DHT22;4049;49.468;11.200;2023-11-19T14:28:28;15.90;99.90
8008;DHT22;4049;49.468;11.200;2023-11-19T14:30:57;16.10;99.90
8008;DHT22;4049;49.468;11.200;2023-11-19T14:33:23;16.40;99.90
8008;DHT22;4049;49.468;11.200;2023-11-19T14:35:52;16.80;99.90
8008;DHT22;4049;49.468;11.200;2023-11-19T14:38:19;17.00;99.90
8008;DHT22;4049;49.468;11.200;2023-11-19T14:40:46;17.10;99.90
8008;DHT22;4049;49.468;11.200;2023-11-19T14:43:13;17.10;99.90
8008;DHT22;4049;49.468;11.200;2023-11-19T14:45:41;17.10;99.90
8008;DHT22;4049;49.468;11.200;2023-11-19T14:48:08;16.80;99.90
8008;DHT22;4049;49.468;11.200;2023-11-19T14:50:35;16.30;99.90
8008;DHT22;4049;49.468;11.200;2023-11-19T14:53:04;15.80;99.90
8008;DHT22;4049;49.468;11.200;2023-11-19T14:55:31;15.30;99.90
8008;DHT22;4049;49.468;11.200;2023-11-19T14:57:58;15.00;99.90
8008;DHT22;4049;49.468;11.200;2023-11-19T15:00:25;14.70;99.90
8008;DHT22;4049;49.468;11.200;2023-11-19T15:02:52;14.40;99.90
8008;DHT22;4049;49.468;11.200;2023-11-19T15:05:19;14.20;99.90
8008;DHT22;4049;49.468;11.200;2023-11-19T15:07:46;14.10;99.90
8008;DHT22;4049;49.468;11.200;2023-11-19T15:10:15;14.00;99.90
8008;DHT22;4049;49.468;11.200;2023-11-19T15:12:42;13.90;99.90
8008;DHT22;4049;49.468;11.200;2023-11-19T15:15:09;13.80;99.90
8008;DHT22;4049;49.468;11.200;2023-11-19T15:17:39;13.60;99.90
8008;DHT22;4049;49.468;11.200;2023-11-19T15:20:08;13.50;99.90
8008;DHT22;4049;49.468;11.200;2023-11-19T15:22:35;13.50;99.90
8008;DHT22;4049;49.468;11.200;2023-11-19T15:25:02;13.40;99.90
8008;DHT22;4049;49.468;11.200;2023-11-19T15:27:30;13.30;99.90
8008;DHT22;4049;49.468;11.200;2023-11-19T15:29:57;13.20;99.90
8008;DHT22;4049;49.468;11.200;2023-11-19T15:32:24;13.10;99.90
8008;DHT22;4049;49.468;11.200;2023-11-19T15:34:51;13.10;99.90
8008;DHT22;4049;49.468;11.200;2023-11-19T15:37:18;13.00;99.90
8008;DHT22;4049;49.468;11.200;2023-11-19T15:39:46;13.00;99.90
8008;DHT22;4049;49.468;11.200;2023-11-19T15:42:15;13.00;99.90
8008;DHT22;4049;49.468;11.200;2023-11-19T15:44:43;12.90;99.90
8008;DHT22;4049;49.468;11.200;2023-11-19T15:47:11;12.90;99.90
8008;DHT22;4049;49.468;11.200;2023-11-19T15:49:39;12.80;99.90
8008;DHT22;4049;49.468;11.200;2023-11-19T15:52:12;12.80;99.90
8008;DHT22;4049;49.468;11.200;2023-11-19T15:54:40;12.70;99.90
8008;DHT22;4049;49.468;11.200;2023-11-19T15:57:07;12.70;99.90
8008;DHT22;4049;49.468;11.200;2023-11-19T15:59:34;12.70;99.90
8008;DHT22;4049;49.468;11.200;2023-11-19T16:02:03;12.60;99.90